sensor_id;sensor_type;location;lat;lon;timestamp;P1;durP1;ratioP1;P2;durP2;ratioP2
62419;SDS011;48460;51.616;5.426;2023-01-31T00:01:37;32.08;;;4.10;;
62419;SDS011;48460;51.616;5.426;2023-01-31T00:04:09;29.98;;;4.03;;
62419;SDS011;48460;51.616;5.426;2023-01-31T00:06:40;26.05;;;3.70;;
62419;SDS011;48460;51.616;5.426;2023-01-31T00:09:15;27.35;;;3.72;;
62419;SDS011;48460;51.616;5.426;2023-01-31T00:11:46;25.55;;;3.95;;
62419;SDS011;48460;51.616;5.426;2023-01-31T00:14:18;18.67;;;3.50;;
62419;SDS011;48460;51.616;5.426;2023-01-31T00:20:28;16.92;;;3.20;;
62419;SDS011;48460;51.616;5.426;2023-01-31T00:23:18;27.85;;;3.72;;
62419;SDS011;48460;51.616;5.426;2023-01-31T00:26:26;21.70;;;3.50;;
62419;SDS011;48460;51.616;5.426;2023-01-31T00:28:59;23.48;;;3.80;;
62419;SDS011;48460;51.616;5.426;2023-01-31T00:32:04;23.48;;;3.63;;
62419;SDS011;48460;51.616;5.426;2023-01-31T00:34:42;18.65;;;3.40;;
62419;SDS011;48460;51.616;5.426;2023-01-31T00:37:35;26.48;;;4.00;;
62419;SDS011;48460;51.616;5.426;2023-01-31T00:40:24;33.90;;;4.10;;
62419;SDS011;48460;51.616;5.426;2023-01-31T00:43:24;26.23;;;4.40;;
62419;SDS011;48460;51.616;5.426;2023-01-31T00:46:03;18.55;;;3.25;;
62419;SDS011;48460;51.616;5.426;2023-01-31T00:48:39;23.88;;;4.05;;
62419;SDS011;48460;51.616;5.426;2023-01-31T00:51:26;21.70;;;4.15;;
62419;SDS011;48460;51.616;5.426;2023-01-31T00:54:03;20.00;;;3.95;;
62419;SDS011;48460;51.616;5.426;2023-01-31T00:56:59;22.23;;;3.83;;
62419;SDS011;48460;51.616;5.426;2023-01-31T00:59:29;34.03;;;4.18;;
62419;SDS011;48460;51.616;5.426;2023-01-31T01:02:19;23.85;;;4.28;;
62419;SDS011;48460;51.616;5.426;2023-01-31T01:04:50;20.48;;;3.92;;
62419;SDS011;48460;51.616;5.426;2023-01-31T01:07:46;27.17;;;4.03;;
62419;SDS011;48460;51.616;5.426;2023-01-31T01:10:18;20.58;;;4.13;;
62419;SDS011;48460;51.616;5.426;2023-01-31T01:13:08;21.75;;;3.67;;
62419;SDS011;48460;51.616;5.426;2023-01-31T01:15:41;25.42;;;4.30;;
62419;SDS011;48460;51.616;5.426;2023-01-31T01:18:37;22.10;;;4.45;;
62419;SDS011;48460;51.616;5.426;2023-01-31T01:24:47;21.80;;;4.10;;
62419;SDS011;48460;51.616;5.426;2023-01-31T01:27:34;20.50;;;4.57;;
62419;SDS011;48460;51.616;5.426;2023-01-31T01:30:08;25.08;;;3.97;;
62419;SDS011;48460;51.616;5.426;2023-01-31T01:33:31;25.67;;;4.68;;
62419;SDS011;48460;51.616;5.426;2023-01-31T01:39:24;27.15;;;4.65;;
62419;SDS011;48460;51.616;5.426;2023-01-31T01:45:31;28.02;;;4.88;;
62419;SDS011;48460;51.616;5.426;2023-01-31T01:48:06;27.55;;;4.65;;
62419;SDS011;48460;51.616;5.426;2023-01-31T01:51:16;29.27;;;5.32;;
62419;SDS011;48460;51.616;5.426;2023-01-31T02:04:04;32.10;;;6.00;;
62419;SDS011;48460;51.616;5.426;2023-01-31T02:13:21;25.23;;;6.07;;
62419;SDS011;48460;51.616;5.426;2023-01-31T02:15:47;31.52;;;6.00;;
62419;SDS011;48460;51.616;5.426;2023-01-31T02:18:18;25.23;;;6.18;;
62419;SDS011;48460;51.616;5.426;2023-01-31T02:37:31;28.38;;;6.50;;
62419;SDS011;48460;51.616;5.426;2023-01-31T02:50:16;30.98;;;7.07;;
62419;SDS011;48460;51.616;5.426;2023-01-31T02:52:57;30.35;;;7.85;;
62419;SDS011;48460;51.616;5.426;2023-01-31T02:58:20;35.92;;;7.57;;
62419;SDS011;48460;51.616;5.426;2023-01-31T03:01:03;40.88;;;8.40;;
62419;SDS011;48460;51.616;5.426;2023-01-31T03:27:40;45.33;;;9.85;;
62419;SDS011;48460;51.616;5.426;2023-01-31T03:48:47;36.83;;;9.00;;
62419;SDS011;48460;51.616;5.426;2023-01-31T03:58:25;38.85;;;8.23;;
62419;SDS011;48460;51.616;5.426;2023-01-31T04:01:40;33.92;;;9.45;;
62419;SDS011;48460;51.616;5.426;2023-01-31T04:04:24;34.75;;;9.52;;
62419;SDS011;48460;51.616;5.426;2023-01-31T04:07:11;47.38;;;10.48;;
62419;SDS011;48460;51.616;5.426;2023-01-31T04:17:10;37.33;;;9.95;;
62419;SDS011;48460;51.616;5.426;2023-01-31T04:22:41;34.83;;;10.90;;
62419;SDS011;48460;51.616;5.426;2023-01-31T04:25:16;35.13;;;10.73;;
62419;SDS011;48460;51.616;5.426;2023-01-31T04:28:08;44.30;;;13.07;;
62419;SDS011;48460;51.616;5.426;2023-01-31T04:30:49;47.03;;;11.88;;
62419;SDS011;48460;51.616;5.426;2023-01-31T04:36:44;45.25;;;11.77;;
62419;SDS011;48460;51.616;5.426;2023-01-31T04:39:09;55.22;;;12.60;;
62419;SDS011;48460;51.616;5.426;2023-01-31T04:41:39;43.30;;;11.88;;
62419;SDS011;48460;51.616;5.426;2023-01-31T04:44:11;39.55;;;11.18;;
62419;SDS011;48460;51.616;5.426;2023-01-31T04:47:14;29.00;;;10.27;;
62419;SDS011;48460;51.616;5.426;2023-01-31T04:50:07;38.97;;;11.00;;
62419;SDS011;48460;51.616;5.426;2023-01-31T04:53:20;33.40;;;9.85;;
62419;SDS011;48460;51.616;5.426;2023-01-31T04:59:14;32.55;;;10.63;;
62419;SDS011;48460;51.616;5.426;2023-01-31T05:05:09;42.28;;;11.52;;
62419;SDS011;48460;51.616;5.426;2023-01-31T05:08:25;44.17;;;12.05;;
62419;SDS011;48460;51.616;5.426;2023-01-31T05:11:43;40.33;;;10.70;;
62419;SDS011;48460;51.616;5.426;2023-01-31T05:14:16;44.90;;;13.02;;
62419;SDS011;48460;51.616;5.426;2023-01-31T05:17:12;43.78;;;11.70;;
62419;SDS011;48460;51.616;5.426;2023-01-31T05:20:31;27.03;;;10.57;;
62419;SDS011;48460;51.616;5.426;2023-01-31T05:23:27;44.58;;;12.10;;
62419;SDS011;48460;51.616;5.426;2023-01-31T05:25:56;40.90;;;11.38;;
62419;SDS011;48460;51.616;5.426;2023-01-31T05:28:31;38.75;;;11.63;;
62419;SDS011;48460;51.616;5.426;2023-01-31T05:31:01;43.40;;;11.38;;
62419;SDS011;48460;51.616;5.426;2023-01-31T05:36:51;42.53;;;9.90;;
62419;SDS011;48460;51.616;5.426;2023-01-31T05:39:37;34.53;;;11.15;;
62419;SDS011;48460;51.616;5.426;2023-01-31T05:42:03;41.70;;;11.30;;
62419;SDS011;48460;51.616;5.426;2023-01-31T05:48:13;33.70;;;12.02;;
62419;SDS011;48460;51.616;5.426;2023-01-31T05:50:48;48.47;;;12.73;;
62419;SDS011;48460;51.616;5.426;2023-01-31T05:53:34;35.55;;;10.57;;
62419;SDS011;48460;51.616;5.426;2023-01-31T05:56:17;35.13;;;11.52;;
62419;SDS011;48460;51.616;5.426;2023-01-31T05:58:42;31.80;;;9.68;;
62419;SDS011;48460;51.616;5.426;2023-01-31T06:01:25;38.78;;;10.82;;
62419;SDS011;48460;51.616;5.426;2023-01-31T06:03:58;31.63;;;10.02;;
62419;SDS011;48460;51.616;5.426;2023-01-31T06:06:24;36.88;;;11.10;;
62419;SDS011;48460;51.616;5.426;2023-01-31T06:08:58;42.65;;;10.88;;
62419;SDS011;48460;51.616;5.426;2023-01-31T06:11:23;37.17;;;11.48;;
62419;SDS011;48460;51.616;5.426;2023-01-31T06:14:24;38.40;;;12.40;;
62419;SDS011;48460;51.616;5.426;2023-01-31T06:21:43;35.75;;;10.40;;
62419;SDS011;48460;51.616;5.426;2023-01-31T06:42:05;27.33;;;8.50;;
62419;SDS011;48460;51.616;5.426;2023-01-31T06:44:38;34.33;;;9.87;;
62419;SDS011;48460;51.616;5.426;2023-01-31T06:47:06;38.20;;;9.60;;
62419;SDS011;48460;51.616;5.426;2023-01-31T06:49:44;35.07;;;10.17;;
62419;SDS011;48460;51.616;5.426;2023-01-31T06:52:18;40.53;;;10.50;;
62419;SDS011;48460;51.616;5.426;2023-01-31T06:54:46;30.95;;;9.00;;
62419;SDS011;48460;51.616;5.426;2023-01-31T07:01:08;39.17;;;10.13;;
62419;SDS011;48460;51.616;5.426;2023-01-31T07:03:41;34.33;;;9.02;;
62419;SDS011;48460;51.616;5.426;2023-01-31T07:06:09;25.73;;;7.95;;
62419;SDS011;48460;51.616;5.426;2023-01-31T07:08:50;33.88;;;9.27;;
62419;SDS011;48460;51.616;5.426;2023-01-31T07:11:23;30.30;;;8.57;;
62419;SDS011;48460;51.616;5.426;2023-01-31T07:14:45;33.60;;;9.38;;
62419;SDS011;48460;51.616;5.426;2023-01-31T07:17:14;35.53;;;9.57;;
62419;SDS011;48460;51.616;5.426;2023-01-31T07:19:48;32.80;;;9.10;;
62419;SDS011;48460;51.616;5.426;2023-01-31T07:22:31;34.95;;;8.80;;
62419;SDS011;48460;51.616;5.426;2023-01-31T07:25:11;32.92;;;8.52;;
62419;SDS011;48460;51.616;5.426;2023-01-31T07:27:45;31.33;;;8.85;;
62419;SDS011;48460;51.616;5.426;2023-01-31T07:30:15;29.45;;;8.75;;
62419;SDS011;48460;51.616;5.426;2023-01-31T07:32:48;30.48;;;8.93;;
62419;SDS011;48460;51.616;5.426;2023-01-31T07:35:18;37.95;;;10.55;;
62419;SDS011;48460;51.616;5.426;2023-01-31T07:37:49;33.05;;;8.43;;
62419;SDS011;48460;51.616;5.426;2023-01-31T07:40:24;30.77;;;8.38;;
62419;SDS011;48460;51.616;5.426;2023-01-31T07:42:50;29.85;;;8.07;;
62419;SDS011;48460;51.616;5.426;2023-01-31T07:45:18;34.13;;;8.52;;
62419;SDS011;48460;51.616;5.426;2023-01-31T07:47:46;30.85;;;8.70;;
62419;SDS011;48460;51.616;5.426;2023-01-31T07:50:15;34.47;;;9.27;;
62419;SDS011;48460;51.616;5.426;2023-01-31T07:52:52;34.53;;;8.10;;
62419;SDS011;48460;51.616;5.426;2023-01-31T07:55:20;27.15;;;8.02;;
62419;SDS011;48460;51.616;5.426;2023-01-31T07:57:45;37.40;;;9.27;;
62419;SDS011;48460;51.616;5.426;2023-01-31T08:00:12;31.17;;;7.60;;
62419;SDS011;48460;51.616;5.426;2023-01-31T08:02:57;25.35;;;6.90;;
62419;SDS011;48460;51.616;5.426;2023-01-31T08:08:46;34.17;;;9.00;;
62419;SDS011;48460;51.616;5.426;2023-01-31T08:11:34;32.92;;;7.68;;
62419;SDS011;48460;51.616;5.426;2023-01-31T08:13:59;27.42;;;6.90;;
62419;SDS011;48460;51.616;5.426;2023-01-31T08:16:39;26.17;;;6.70;;
62419;SDS011;48460;51.616;5.426;2023-01-31T08:22:35;26.08;;;7.97;;
62419;SDS011;48460;51.616;5.426;2023-01-31T08:25:13;20.85;;;5.78;;
62419;SDS011;48460;51.616;5.426;2023-01-31T08:27:58;26.85;;;6.60;;
62419;SDS011;48460;51.616;5.426;2023-01-31T08:30:24;25.02;;;7.10;;
62419;SDS011;48460;51.616;5.426;2023-01-31T08:33:00;23.45;;;6.97;;
62419;SDS011;48460;51.616;5.426;2023-01-31T08:38:33;23.25;;;6.50;;
62419;SDS011;48460;51.616;5.426;2023-01-31T08:41:00;20.15;;;6.47;;
62419;SDS011;48460;51.616;5.426;2023-01-31T08:43:39;30.48;;;7.60;;
62419;SDS011;48460;51.616;5.426;2023-01-31T08:49:55;20.08;;;5.22;;
62419;SDS011;48460;51.616;5.426;2023-01-31T08:52:31;21.02;;;6.72;;
62419;SDS011;48460;51.616;5.426;2023-01-31T08:55:17;28.67;;;6.43;;
62419;SDS011;48460;51.616;5.426;2023-01-31T09:02:15;19.90;;;5.65;;
62419;SDS011;48460;51.616;5.426;2023-01-31T09:05:35;27.92;;;6.53;;
62419;SDS011;48460;51.616;5.426;2023-01-31T09:08:08;25.35;;;6.32;;
62419;SDS011;48460;51.616;5.426;2023-01-31T09:11:24;25.83;;;6.90;;
62419;SDS011;48460;51.616;5.426;2023-01-31T09:17:49;24.48;;;6.10;;
62419;SDS011;48460;51.616;5.426;2023-01-31T09:24:31;22.70;;;6.00;;
62419;SDS011;48460;51.616;5.426;2023-01-31T09:44:40;24.15;;;6.25;;
62419;SDS011;48460;51.616;5.426;2023-01-31T09:47:20;21.30;;;5.43;;
62419;SDS011;48460;51.616;5.426;2023-01-31T09:53:14;19.83;;;6.10;;
62419;SDS011;48460;51.616;5.426;2023-01-31T09:59:37;24.52;;;6.82;;
62419;SDS011;48460;51.616;5.426;2023-01-31T10:19:41;24.38;;;6.93;;
62419;SDS011;48460;51.616;5.426;2023-01-31T10:22:52;28.42;;;7.63;;
62419;SDS011;48460;51.616;5.426;2023-01-31T10:28:21;26.27;;;9.05;;
62419;SDS011;48460;51.616;5.426;2023-01-31T10:34:20;29.00;;;9.55;;
62419;SDS011;48460;51.616;5.426;2023-01-31T10:40:05;28.23;;;11.13;;
62419;SDS011;48460;51.616;5.426;2023-01-31T10:43:17;30.80;;;11.60;;
62419;SDS011;48460;51.616;5.426;2023-01-31T10:45:48;33.53;;;12.77;;
62419;SDS011;48460;51.616;5.426;2023-01-31T10:48:19;26.80;;;10.47;;
62419;SDS011;48460;51.616;5.426;2023-01-31T10:51:21;37.10;;;13.13;;
62419;SDS011;48460;51.616;5.426;2023-01-31T10:58:02;34.63;;;12.60;;
62419;SDS011;48460;51.616;5.426;2023-01-31T11:00:28;37.97;;;14.90;;
62419;SDS011;48460;51.616;5.426;2023-01-31T11:03:52;35.00;;;14.48;;
62419;SDS011;48460;51.616;5.426;2023-01-31T11:07:00;35.42;;;14.52;;
62419;SDS011;48460;51.616;5.426;2023-01-31T11:09:40;38.38;;;15.00;;
62419;SDS011;48460;51.616;5.426;2023-01-31T11:12:19;39.50;;;13.80;;
62419;SDS011;48460;51.616;5.426;2023-01-31T11:15:17;38.85;;;14.77;;
62419;SDS011;48460;51.616;5.426;2023-01-31T11:17:49;28.95;;;12.50;;
62419;SDS011;48460;51.616;5.426;2023-01-31T11:23:50;34.08;;;13.15;;
62419;SDS011;48460;51.616;5.426;2023-01-31T11:27:23;28.67;;;12.52;;
62419;SDS011;48460;51.616;5.426;2023-01-31T11:37:09;37.50;;;13.55;;
62419;SDS011;48460;51.616;5.426;2023-01-31T11:43:23;36.75;;;12.70;;
62419;SDS011;48460;51.616;5.426;2023-01-31T11:45:58;33.45;;;12.07;;
62419;SDS011;48460;51.616;5.426;2023-01-31T11:49:26;30.45;;;11.43;;
62419;SDS011;48460;51.616;5.426;2023-01-31T11:52:14;35.33;;;12.35;;
62419;SDS011;48460;51.616;5.426;2023-01-31T11:54:49;24.40;;;10.63;;
62419;SDS011;48460;51.616;5.426;2023-01-31T11:57:32;24.35;;;10.50;;
62419;SDS011;48460;51.616;5.426;2023-01-31T12:00:23;29.58;;;11.02;;
62419;SDS011;48460;51.616;5.426;2023-01-31T12:03:00;28.83;;;10.23;;
62419;SDS011;48460;51.616;5.426;2023-01-31T12:05:42;31.85;;;10.63;;
62419;SDS011;48460;51.616;5.426;2023-01-31T12:11:34;24.17;;;8.23;;
62419;SDS011;48460;51.616;5.426;2023-01-31T12:14:19;28.55;;;8.68;;
62419;SDS011;48460;51.616;5.426;2023-01-31T12:16:47;21.38;;;8.25;;
62419;SDS011;48460;51.616;5.426;2023-01-31T12:43:11;28.10;;;6.07;;
62419;SDS011;48460;51.616;5.426;2023-01-31T12:46:11;18.73;;;5.75;;
62419;SDS011;48460;51.616;5.426;2023-01-31T12:55:41;20.38;;;6.18;;
62419;SDS011;48460;51.616;5.426;2023-01-31T13:08:47;19.30;;;4.97;;
62419;SDS011;48460;51.616;5.426;2023-01-31T13:18:42;18.85;;;5.50;;
62419;SDS011;48460;51.616;5.426;2023-01-31T13:22:06;23.92;;;5.53;;
62419;SDS011;48460;51.616;5.426;2023-01-31T13:24:53;25.77;;;5.60;;
62419;SDS011;48460;51.616;5.426;2023-01-31T13:35:02;13.25;;;4.30;;
62419;SDS011;48460;51.616;5.426;2023-01-31T13:38:07;22.05;;;5.30;;
62419;SDS011;48460;51.616;5.426;2023-01-31T13:44:08;19.30;;;5.10;;
62419;SDS011;48460;51.616;5.426;2023-01-31T13:47:01;24.25;;;5.15;;
62419;SDS011;48460;51.616;5.426;2023-01-31T14:00:44;20.67;;;5.18;;
62419;SDS011;48460;51.616;5.426;2023-01-31T14:10:41;23.55;;;4.65;;
62419;SDS011;48460;51.616;5.426;2023-01-31T14:29:17;20.98;;;4.43;;
62419;SDS011;48460;51.616;5.426;2023-01-31T14:31:55;22.00;;;4.72;;
62419;SDS011;48460;51.616;5.426;2023-01-31T14:34:39;21.30;;;4.85;;
62419;SDS011;48460;51.616;5.426;2023-01-31T15:47:21;18.83;;;3.85;;
62419;SDS011;48460;51.616;5.426;2023-01-31T16:10:49;23.00;;;4.07;;
62419;SDS011;48460;51.616;5.426;2023-01-31T16:14:35;19.25;;;3.35;;
62419;SDS011;48460;51.616;5.426;2023-01-31T16:17:31;15.70;;;3.67;;
62419;SDS011;48460;51.616;5.426;2023-01-31T16:24:50;17.08;;;3.65;;
62419;SDS011;48460;51.616;5.426;2023-01-31T16:28:13;22.20;;;3.65;;
62419;SDS011;48460;51.616;5.426;2023-01-31T16:31:11;19.63;;;3.38;;
62419;SDS011;48460;51.616;5.426;2023-01-31T16:34:43;22.60;;;3.70;;
62419;SDS011;48460;51.616;5.426;2023-01-31T16:38:29;21.35;;;4.60;;
62419;SDS011;48460;51.616;5.426;2023-01-31T16:42:20;22.52;;;4.03;;
62419;SDS011;48460;51.616;5.426;2023-01-31T16:45:30;21.25;;;3.25;;
62419;SDS011;48460;51.616;5.426;2023-01-31T16:48:45;22.00;;;3.28;;
62419;SDS011;48460;51.616;5.426;2023-01-31T17:12:28;26.23;;;4.25;;
62419;SDS011;48460;51.616;5.426;2023-01-31T19:37:58;26.17;;;5.10;;
62419;SDS011;48460;51.616;5.426;2023-01-31T19:40:32;20.52;;;4.38;;
62419;SDS011;48460;51.616;5.426;2023-01-31T19:44:16;33.97;;;5.55;;
62419;SDS011;48460;51.616;5.426;2023-01-31T19:50:41;20.90;;;5.63;;
62419;SDS011;48460;51.616;5.426;2023-01-31T21:27:58;25.60;;;5.20;;
62419;SDS011;48460;51.616;5.426;2023-01-31T21:31:53;25.67;;;4.80;;
